| time (UTC) | temp F | wind direction | speed MPH | gust MPH | rain 1hr in | rain 24hr in | rain mn in | humidity % | barometer mb |
| 20260504185519 | 66 | 272 | 3.0 | 11.0 | 0.00 | 0.00 | 0.00 | 41 | 1015.5 |
| 20260504185019 | 67 | 0 | 4.0 | 11.0 | 0.00 | 0.00 | 0.00 | 39 | 1015.5 |
| 20260504184545 | 67 | 261 | 3.0 | 11.0 | 0.00 | 0.00 | 0.00 | 41 | 1015.5 |
| 20260504184019 | 66 | 302 | 4.0 | 11.0 | 0.00 | 0.00 | 0.00 | 42 | 1015.4 |
| 20260504183520 | 67 | 221 | 5.0 | 13.0 | 0.00 | 0.00 | 0.00 | 39 | 1015.6 |
| 20260504183034 | 66 | 190 | 6.0 | 14.0 | 0.00 | 0.00 | 0.00 | 41 | 1015.6 |
| 20260504182519 | 65 | 198 | 6.0 | 14.0 | 0.00 | 0.00 | 0.00 | 41 | 1015.6 |
| 20260504182019 | 65 | 272 | 4.0 | 12.0 | 0.00 | 0.00 | 0.00 | 44 | 1015.6 |
| 20260504181541 | 65 | 249 | 4.0 | 12.0 | 0.00 | 0.00 | 0.00 | 43 | 1015.7 |
| 20260504181019 | 65 | 207 | 7.0 | 12.0 | 0.00 | 0.00 | 0.00 | 44 | 1015.7 |
| 20260504180522 | 65 | 222 | 3.0 | 11.0 | 0.00 | 0.00 | 0.00 | 44 | 1015.6 |
| 20260504180042 | 64 | 267 | 6.0 | 18.0 | 0.00 | 0.00 | 0.00 | 44 | 1015.7 |
| 20260504175522 | 64 | 269 | 3.0 | 18.0 | 0.00 | 0.00 | 0.00 | 45 | 1015.7 |
| 20260504175022 | 64 | 241 | 7.0 | 11.0 | 0.00 | 0.00 | 0.00 | 43 | 1015.7 |
| 20260504174538 | 64 | 293 | 3.0 | 11.0 | 0.00 | 0.00 | 0.00 | 44 | 1015.8 |
| 20260504174020 | 65 | 314 | 3.0 | 11.0 | 0.00 | 0.00 | 0.00 | 46 | 1015.8 |
| 20260504173519 | 65 | 269 | 4.0 | 10.0 | 0.00 | 0.00 | 0.00 | 43 | 1015.9 |
| 20260504173036 | 64 | 234 | 4.0 | 10.0 | 0.00 | 0.00 | 0.00 | 43 | 1015.8 |
| 20260504172519 | 64 | 197 | 4.0 | 10.0 | 0.00 | 0.00 | 0.00 | 43 | 1015.8 |
| 20260504172019 | 64 | 233 | 4.0 | 9.0 | 0.00 | 0.00 | 0.00 | 43 | 1015.8 |
| 20260504171535 | 64 | 214 | 1.0 | 11.0 | 0.00 | 0.00 | 0.00 | 47 | 1015.8 |
| 20260504171026 | 64 | 309 | 4.0 | 13.0 | 0.00 | 0.00 | 0.00 | 41 | 1015.9 |
| 20260504170524 | 64 | 253 | 5.0 | 13.0 | 0.00 | 0.00 | 0.00 | 43 | 1015.8 |
| 20260504151020 | 58 | 293 | 4.0 | 12.0 | 0.00 | 0.00 | 0.00 | 52 | 1017.4 |
| 20260504150519 | 57 | 295 | 6.0 | 13.0 | 0.00 | 0.00 | 0.00 | 48 | 1017.5 |
| 20260504141019 | 56 | 237 | 4.0 | 8.0 | 0.00 | 0.00 | 0.00 | 52 | 1016.9 |
| 20260504140519 | 56 | 277 | 4.0 | 10.0 | 0.00 | 0.00 | 0.00 | 52 | 1017.0 |
| 20260504130522 | 53 | 263 | 2.0 | 6.0 | 0.00 | 0.00 | 0.00 | 54 | 1016.5 |
| 20260504110522 | 40 | 127 | 0.0 | 2.0 | 0.00 | 0.00 | 0.00 | 74 | 1015.7 |
| 20260504100522 | 41 | 274 | 0.0 | 5.0 | 0.00 | 0.00 | 0.00 | 72 | 1015.5 |
| 20260504081537 | 38 | 0 | 0.0 | 1.0 | 0.00 | 0.00 | 0.00 | 72 | 1015.7 |
| 20260504081018 | 38 | 0 | 0.0 | 1.0 | 0.00 | 0.00 | 0.00 | 71 | 1015.7 |
| 20260504080519 | 38 | 0 | 0.0 | 1.0 | 0.00 | 0.00 | 0.00 | 71 | 1015.6 |
| 20260504050524 | 38 | 354 | 1.0 | 2.0 | 0.00 | 0.00 | 0.00 | 70 | 1016.3 |
| 20260504045521 | 39 | 335 | 1.0 | 3.0 | 0.00 | 0.00 | 0.00 | 67 | 1016.4 |
| 20260504045020 | 39 | 0 | 0.0 | 3.0 | 0.00 | 0.00 | 0.00 | 67 | 1016.4 |
| 20260504044535 | 39 | 17 | 2.0 | 3.0 | 0.00 | 0.00 | 0.00 | 67 | 1016.3 |
| 20260504044020 | 39 | 27 | 1.0 | 3.0 | 0.00 | 0.00 | 0.00 | 68 | 1016.3 |
| 20260504043522 | 39 | 0 | 0.0 | 3.0 | 0.00 | 0.00 | 0.00 | 68 | 1016.2 |
| 20260504043036 | 38 | 32 | 0.0 | 3.0 | 0.00 | 0.00 | 0.00 | 70 | 1016.2 |
| 20260504042521 | 38 | 0 | 0.0 | 1.0 | 0.00 | 0.00 | 0.00 | 69 | 1016.1 |
| 20260504042020 | 39 | 0 | 0.0 | 1.0 | 0.00 | 0.00 | 0.00 | 69 | 1016.0 |
| 20260504041535 | 39 | 33 | 0.0 | 2.0 | 0.00 | 0.00 | 0.00 | 67 | 1016.1 |
| 20260504041019 | 39 | 0 | 0.0 | 2.0 | 0.00 | 0.00 | 0.00 | 68 | 1016.2 |
| 20260504040519 | 39 | 4 | 0.0 | 3.0 | 0.00 | 0.00 | 0.00 | 68 | 1016.2 |
| 20260504040036 | 38 | 87 | 1.0 | 3.0 | 0.00 | 0.00 | 0.00 | 70 | 1016.1 |
| 20260504035522 | 38 | 68 | 2.0 | 3.0 | 0.00 | 0.00 | 0.00 | 70 | 1016.1 |
| 20260504035018 | 38 | 134 | 0.0 | 2.0 | 0.00 | 0.00 | 0.00 | 69 | 1016.2 |
| 20260504034535 | 38 | 0 | 0.0 | 3.0 | 0.00 | 0.00 | 0.00 | 69 | 1016.2 |
| 20260504034019 | 38 | 0 | 0.0 | 3.0 | 0.00 | 0.00 | 0.00 | 71 | 1016.0 |
| 20260504033519 | 38 | 91 | 1.0 | 3.0 | 0.00 | 0.00 | 0.00 | 70 | 1015.9 |
| 20260504033046 | 39 | 316 | 2.0 | 3.0 | 0.00 | 0.00 | 0.00 | 68 | 1015.9 |
| 20260504032520 | 39 | 338 | 1.0 | 2.0 | 0.00 | 0.00 | 0.00 | 69 | 1015.9 |
| 20260504032021 | 39 | 0 | 0.0 | 0.0 | 0.00 | 0.00 | 0.00 | 66 | 1015.9 |
| 20260504031533 | 39 | 0 | 0.0 | 1.0 | 0.00 | 0.00 | 0.00 | 66 | 1015.9 |
| 20260504031019 | 39 | 0 | 0.0 | 1.0 | 0.00 | 0.00 | 0.00 | 66 | 1016.0 |
| 20260504030519 | 40 | 0 | 0.0 | 1.0 | 0.00 | 0.00 | 0.00 | 66 | 1016.0 |
| 20260504030036 | 40 | 121 | 0.0 | 3.0 | 0.00 | 0.00 | 0.00 | 65 | 1016.0 |
| 20260504025520 | 40 | 0 | 0.0 | 3.0 | 0.00 | 0.00 | 0.00 | 66 | 1016.1 |
| 20260504025022 | 40 | 120 | 1.0 | 2.0 | 0.00 | 0.00 | 0.00 | 64 | 1016.2 |
| 20260504024549 | 40 | 0 | 0.0 | 1.0 | 0.00 | 0.00 | 0.00 | 64 | 1016.2 |
| 20260504024022 | 41 | 303 | 0.0 | 1.0 | 0.00 | 0.00 | 0.00 | 62 | 1016.2 |
| 20260504023521 | 42 | 0 | 0.0 | 1.0 | 0.00 | 0.00 | 0.00 | 60 | 1016.3 |
| 20260504023037 | 42 | 0 | 0.0 | 1.0 | 0.00 | 0.00 | 0.00 | 58 | 1016.3 |
| 20260504022521 | 43 | 0 | 0.0 | 4.0 | 0.00 | 0.00 | 0.00 | 58 | 1016.4 |
| 20260504022020 | 43 | 302 | 2.0 | 7.0 | 0.00 | 0.00 | 0.00 | 57 | 1016.3 |
| 20260504021541 | 43 | 314 | 2.0 | 7.0 | 0.00 | 0.00 | 0.00 | 56 | 1016.2 |
| 20260504021019 | 44 | 305 | 4.0 | 7.0 | 0.00 | 0.00 | 0.00 | 55 | 1016.2 |
| 20260504020520 | 44 | 318 | 4.0 | 7.0 | 0.00 | 0.00 | 0.00 | 55 | 1016.2 |
| 20260504020035 | 44 | 302 | 3.0 | 6.0 | 0.00 | 0.00 | 0.00 | 55 | 1016.2 |
| 20260504015521 | 44 | 325 | 3.0 | 5.0 | 0.00 | 0.00 | 0.00 | 54 | 1016.0 |
| 20260504015022 | 44 | 314 | 2.0 | 5.0 | 0.00 | 0.00 | 0.00 | 54 | 1016.0 |
| 20260504014535 | 45 | 319 | 3.0 | 5.0 | 0.00 | 0.00 | 0.00 | 53 | 1015.9 |
| 20260504014019 | 44 | 300 | 3.0 | 5.0 | 0.00 | 0.00 | 0.00 | 53 | 1015.9 |
| 20260504013520 | 44 | 319 | 2.0 | 5.0 | 0.00 | 0.00 | 0.00 | 54 | 1015.8 |
| 20260504013043 | 44 | 326 | 2.0 | 4.0 | 0.00 | 0.00 | 0.00 | 56 | 1015.8 |
| 20260504012521 | 44 | 336 | 1.0 | 2.0 | 0.00 | 0.00 | 0.00 | 57 | 1015.7 |
| 20260504012020 | 44 | 336 | 1.0 | 3.0 | 0.00 | 0.00 | 0.00 | 55 | 1015.5 |
| 20260504011534 | 45 | 310 | 1.0 | 5.0 | 0.00 | 0.00 | 0.00 | 52 | 1015.5 |
| 20260504011022 | 45 | 300 | 2.0 | 5.0 | 0.00 | 0.00 | 0.00 | 49 | 1015.5 |
| 20260504010520 | 45 | 300 | 2.0 | 4.0 | 0.00 | 0.00 | 0.00 | 50 | 1015.4 |
| 20260504010035 | 46 | 309 | 2.0 | 6.0 | 0.00 | 0.00 | 0.00 | 50 | 1015.4 |
| 20260504005521 | 46 | 278 | 2.0 | 6.0 | 0.00 | 0.00 | 0.00 | 50 | 1015.5 |
| 20260504005020 | 46 | 271 | 3.0 | 6.0 | 0.00 | 0.00 | 0.00 | 50 | 1015.5 |
| 20260504004543 | 47 | 278 | 2.0 | 6.0 | 0.00 | 0.00 | 0.00 | 50 | 1015.5 |
| 20260504004019 | 48 | 296 | 4.0 | 6.0 | 0.00 | 0.00 | 0.00 | 46 | 1015.5 |
| 20260504003520 | 48 | 321 | 3.0 | 5.0 | 0.00 | 0.00 | 0.00 | 45 | 1015.5 |
| 20260504003035 | 48 | 278 | 0.0 | 6.0 | 0.00 | 0.00 | 0.00 | 46 | 1015.5 |
| 20260504002519 | 49 | 298 | 2.0 | 6.0 | 0.00 | 0.00 | 0.00 | 45 | 1015.6 |
| 20260504002019 | 49 | 0 | 1.0 | 6.0 | 0.00 | 0.00 | 0.00 | 43 | 1015.5 |
| 20260504001535 | 49 | 328 | 3.0 | 6.0 | 0.00 | 0.00 | 0.00 | 43 | 1015.5 |
| 20260504001022 | 50 | 321 | 3.0 | 5.0 | 0.00 | 0.00 | 0.00 | 42 | 1015.5 |
| 20260504000524 | 50 | 321 | 1.0 | 5.0 | 0.00 | 0.00 | 0.00 | 41 | 1015.3 |
| 20260504000040 | 51 | 8 | 2.0 | 5.0 | 0.00 | 0.00 | 0.00 | 39 | 1015.3 |
| 20260503235521 | 52 | 0 | 0.0 | 1.0 | 0.00 | 0.00 | 0.00 | 37 | 1015.3 |
| 20260503235019 | 52 | 0 | 0.0 | 3.0 | 0.00 | 0.00 | 0.00 | 35 | 1015.3 |
| 20260503234538 | 53 | 330 | 0.0 | 7.0 | 0.00 | 0.00 | 0.00 | 31 | 1015.2 |
| 20260503234020 | 53 | 271 | 2.0 | 7.0 | 0.00 | 0.00 | 0.00 | 30 | 1015.2 |
| 20260503233519 | 54 | 226 | 3.0 | 6.0 | 0.00 | 0.00 | 0.00 | 29 | 1015.1 |
| 20260503233035 | 54 | 295 | 2.0 | 7.0 | 0.00 | 0.00 | 0.00 | 30 | 1015.2 |
| 20260503232519 | 55 | 268 | 2.0 | 7.0 | 0.00 | 0.00 | 0.00 | 29 | 1015.1 |
| 20260503232019 | 55 | 283 | 1.0 | 7.0 | 0.00 | 0.00 | 0.00 | 28 | 1015.1 |
| 20260503231536 | 56 | 320 | 2.0 | 5.0 | 0.00 | 0.00 | 0.00 | 28 | 1014.9 |
| 20260503231022 | 56 | 293 | 2.0 | 5.0 | 0.00 | 0.00 | 0.00 | 27 | 1015.1 |
| 20260503230521 | 56 | 260 | 2.0 | 9.0 | 0.00 | 0.00 | 0.00 | 28 | 1014.9 |
| 20260503230035 | 56 | 220 | 1.0 | 10.0 | 0.00 | 0.00 | 0.00 | 27 | 1014.9 |
| 20260503225521 | 56 | 312 | 3.0 | 10.0 | 0.00 | 0.00 | 0.00 | 26 | 1014.9 |
| 20260503225021 | 57 | 319 | 1.0 | 10.0 | 0.00 | 0.00 | 0.00 | 29 | 1014.9 |
| 20260503224538 | 56 | 278 | 2.0 | 11.0 | 0.00 | 0.00 | 0.00 | 31 | 1014.9 |
| 20260503224021 | 56 | 328 | 5.0 | 11.0 | 0.00 | 0.00 | 0.00 | 29 | 1015.0 |
| 20260503223524 | 56 | 254 | 5.0 | 11.0 | 0.00 | 0.00 | 0.00 | 29 | 1015.0 |
| 20260503223037 | 57 | 325 | 5.0 | 12.0 | 0.00 | 0.00 | 0.00 | 30 | 1014.9 |
| 20260503222519 | 57 | 328 | 2.0 | 12.0 | 0.00 | 0.00 | 0.00 | 31 | 1015.1 |
| 20260503222019 | 57 | 233 | 3.0 | 8.0 | 0.00 | 0.00 | 0.00 | 31 | 1015.0 |
| 20260503221536 | 57 | 278 | 4.0 | 11.0 | 0.00 | 0.00 | 0.00 | 33 | 1015.1 |
| 20260503221022 | 57 | 200 | 2.0 | 12.0 | 0.00 | 0.00 | 0.00 | 34 | 1015.1 |
| 20260503220520 | 57 | 271 | 7.0 | 13.0 | 0.00 | 0.00 | 0.00 | 32 | 1015.1 |
| 20260503220038 | 57 | 233 | 4.0 | 13.0 | 0.00 | 0.00 | 0.00 | 33 | 1015.1 |
| 20260503215521 | 58 | 162 | 5.0 | 12.0 | 0.00 | 0.00 | 0.00 | 31 | 1015.1 |
| 20260503215023 | 58 | 260 | 1.0 | 7.0 | 0.00 | 0.00 | 0.00 | 31 | 1015.1 |
| 20260503214534 | 58 | 313 | 3.0 | 9.0 | 0.00 | 0.00 | 0.00 | 31 | 1015.2 |
| 20260503214021 | 58 | 306 | 4.0 | 9.0 | 0.00 | 0.00 | 0.00 | 33 | 1015.1 |
| 20260503213521 | 57 | 308 | 4.0 | 10.0 | 0.00 | 0.00 | 0.00 | 32 | 1015.2 |
| 20260503213043 | 58 | 281 | 4.0 | 10.0 | 0.00 | 0.00 | 0.00 | 29 | 1015.2 |
| 20260503212520 | 58 | 287 | 1.0 | 10.0 | 0.00 | 0.00 | 0.00 | 32 | 1015.2 |
| 20260503212019 | 58 | 315 | 4.0 | 14.0 | 0.00 | 0.00 | 0.00 | 33 | 1015.3 |
| 20260503211541 | 58 | 271 | 5.0 | 14.0 | 0.00 | 0.00 | 0.00 | 33 | 1015.4 |
| 20260503211022 | 58 | 278 | 5.0 | 13.0 | 0.00 | 0.00 | 0.00 | 32 | 1015.4 |
| 20260503210520 | 57 | 231 | 6.0 | 13.0 | 0.00 | 0.00 | 0.00 | 31 | 1015.4 |
| 20260503210035 | 57 | 257 | 3.0 | 13.0 | 0.00 | 0.00 | 0.00 | 30 | 1015.3 |
| 20260503205526 | 57 | 274 | 7.0 | 13.0 | 0.00 | 0.00 | 0.00 | 29 | 1015.4 |
| 20260503205021 | 57 | 278 | 4.0 | 13.0 | 0.00 | 0.00 | 0.00 | 31 | 1015.4 |
| 20260503204535 | 57 | 308 | 4.0 | 13.0 | 0.00 | 0.00 | 0.00 | 30 | 1015.4 |
| 20260503204019 | 57 | 261 | 4.0 | 13.0 | 0.00 | 0.00 | 0.00 | 29 | 1015.5 |
| 20260503203519 | 57 | 210 | 5.0 | 13.0 | 0.00 | 0.00 | 0.00 | 28 | 1015.6 |
| 20260503203036 | 57 | 276 | 5.0 | 9.0 | 0.00 | 0.00 | 0.00 | 31 | 1015.6 |
| 20260503202520 | 56 | 299 | 3.0 | 9.0 | 0.00 | 0.00 | 0.00 | 29 | 1015.5 |
| 20260503202020 | 56 | 95 | 1.0 | 13.0 | 0.00 | 0.00 | 0.00 | 34 | 1015.6 |
| 20260503201538 | 56 | 211 | 6.0 | 13.0 | 0.00 | 0.00 | 0.00 | 34 | 1015.8 |
| 20260503201020 | 57 | 281 | 6.0 | 13.0 | 0.00 | 0.00 | 0.00 | 32 | 1015.7 |
| 20260503200519 | 56 | 248 | 1.0 | 7.0 | 0.00 | 0.00 | 0.00 | 36 | 1015.8 |
| 20260503200035 | 56 | 328 | 2.0 | 11.0 | 0.00 | 0.00 | 0.00 | 31 | 1015.9 |
| 20260503195521 | 55 | 266 | 3.0 | 11.0 | 0.00 | 0.00 | 0.00 | 36 | 1015.9 |
| 20260503195019 | 56 | 18 | 3.0 | 11.0 | 0.00 | 0.00 | 0.00 | 32 | 1015.8 |
| 20260503194542 | 56 | 243 | 4.0 | 12.0 | 0.00 | 0.00 | 0.00 | 33 | 1015.9 |
| 20260503194020 | 56 | 231 | 4.0 | 12.0 | 0.00 | 0.00 | 0.00 | 33 | 1015.9 |
| 20260503193519 | 55 | 186 | 4.0 | 9.0 | 0.00 | 0.00 | 0.00 | 36 | 1016.0 |
| 20260503193041 | 55 | 337 | 3.0 | 7.0 | 0.00 | 0.00 | 0.00 | 38 | 1016.2 |
| 20260503192518 | 54 | 25 | 3.0 | 14.0 | 0.00 | 0.00 | 0.00 | 38 | 1016.1 |
| 20260503192018 | 54 | 346 | 2.0 | 14.0 | 0.00 | 0.00 | 0.00 | 40 | 1016.1 |
| 20260503191538 | 54 | 41 | 3.0 | 13.0 | 0.00 | 0.00 | 0.00 | 37 | 1016.1 |
| 20260503191023 | 54 | 331 | 6.0 | 13.0 | 0.00 | 0.00 | 0.00 | 44 | 1016.2 |
| 20260503190522 | 55 | 56 | 4.0 | 13.0 | 0.00 | 0.00 | 0.00 | 37 | 1016.2 |
| 20260503190041 | 54 | 304 | 2.0 | 9.0 | 0.00 | 0.00 | 0.00 | 42 | 1016.3 |